createdAt,value
2018-07-03T00:01:39.727Z,18.30
2018-07-03T00:04:08.893Z,18.20
2018-07-03T00:06:38.403Z,18.10
2018-07-03T00:09:09.026Z,18.10
2018-07-03T00:11:38.450Z,17.90
2018-07-03T00:14:07.565Z,17.80
2018-07-03T00:16:42.088Z,17.90
2018-07-03T00:19:11.308Z,17.90
2018-07-03T00:21:40.406Z,17.70
2018-07-03T00:24:09.606Z,17.70
2018-07-03T00:26:38.804Z,17.70
2018-07-03T00:29:07.898Z,17.60
2018-07-03T00:31:37.100Z,17.60
2018-07-03T00:34:06.437Z,17.60
2018-07-03T00:36:35.551Z,17.60
2018-07-03T00:39:07.298Z,17.60
2018-07-03T00:41:36.492Z,17.60
2018-07-03T00:44:05.606Z,17.50
2018-07-03T00:46:34.739Z,17.40
2018-07-03T00:49:03.929Z,17.30
2018-07-03T00:51:33.187Z,17.20
2018-07-03T00:54:02.568Z,17.10
2018-07-03T00:56:31.791Z,17.10
2018-07-03T00:59:01.118Z,17.00
2018-07-03T01:01:30.400Z,16.90
2018-07-03T01:03:59.629Z,16.90
2018-07-03T01:06:29.118Z,17.00
2018-07-03T01:08:58.628Z,17.00
2018-07-03T01:11:27.905Z,16.80
2018-07-03T01:13:57.573Z,17.00
2018-07-03T01:16:27.054Z,17.10
2018-07-03T01:18:56.207Z,17.00
2018-07-03T01:21:25.485Z,17.20
2018-07-03T01:23:54.818Z,17.00
2018-07-03T01:26:24.170Z,17.00
2018-07-03T01:28:53.418Z,17.00
2018-07-03T01:31:22.553Z,16.80
2018-07-03T01:33:51.892Z,16.60
2018-07-03T01:36:21.153Z,16.50
2018-07-03T01:38:50.366Z,16.50
2018-07-03T01:41:19.436Z,16.30
2018-07-03T01:43:48.681Z,16.40
2018-07-03T01:46:17.886Z,16.40
2018-07-03T01:48:47.016Z,16.40
2018-07-03T01:51:16.348Z,16.30
2018-07-03T01:53:45.666Z,16.30
2018-07-03T01:56:14.972Z,16.30
2018-07-03T01:58:44.084Z,16.30
2018-07-03T02:01:13.325Z,16.30
2018-07-03T02:03:42.670Z,16.20
2018-07-03T02:06:11.982Z,16.30
2018-07-03T02:08:41.028Z,16.30
2018-07-03T02:11:10.077Z,16.30
2018-07-03T02:13:39.402Z,16.30
2018-07-03T02:16:08.576Z,16.10
2018-07-03T02:18:37.815Z,16.00
2018-07-03T02:21:07.074Z,16.00
2018-07-03T02:23:36.234Z,16.00
2018-07-03T02:26:05.300Z,16.00
2018-07-03T02:28:34.279Z,16.00
2018-07-03T02:31:03.824Z,16.10
2018-07-03T02:33:32.977Z,16.00
2018-07-03T02:36:01.986Z,16.00
2018-07-03T02:38:31.033Z,16.00
2018-07-03T02:41:00.030Z,15.90
2018-07-03T02:43:29.035Z,15.80
2018-07-03T02:45:58.295Z,15.80
2018-07-03T02:48:27.566Z,15.70
2018-07-03T02:50:56.821Z,15.60
2018-07-03T02:53:26.091Z,15.50
2018-07-03T02:55:55.189Z,15.50
2018-07-03T02:58:24.619Z,15.40
2018-07-03T03:00:54.373Z,15.40
2018-07-03T03:03:24.275Z,15.20
2018-07-03T03:05:54.517Z,15.20
2018-07-03T03:08:26.799Z,15.10
2018-07-03T03:10:56.865Z,15.00
2018-07-03T03:13:27.053Z,15.00
2018-07-03T03:15:57.088Z,15.00
2018-07-03T03:18:27.229Z,15.00
2018-07-03T03:20:57.275Z,14.90
2018-07-03T03:23:27.097Z,14.90
2018-07-03T03:25:57.137Z,14.90
2018-07-03T03:28:27.258Z,14.80
2018-07-03T03:30:57.367Z,14.70
2018-07-03T03:33:27.515Z,14.70
2018-07-03T03:35:57.317Z,14.70
2018-07-03T03:38:27.399Z,14.80
2018-07-03T03:40:57.141Z,14.90
2018-07-03T03:43:27.401Z,14.90
2018-07-03T03:45:58.033Z,14.80
2018-07-03T03:48:27.602Z,14.80
2018-07-03T03:50:57.351Z,14.80
2018-07-03T03:53:27.723Z,14.90
2018-07-03T03:55:57.612Z,14.90
2018-07-03T03:58:27.236Z,15.00
2018-07-03T04:00:58.391Z,15.10
2018-07-03T04:03:28.140Z,15.10
2018-07-03T04:05:57.793Z,15.20
2018-07-03T04:08:28.361Z,15.30
2018-07-03T04:10:58.008Z,15.20
2018-07-03T04:13:28.407Z,15.20
2018-07-03T04:15:58.107Z,15.20
2018-07-03T04:18:33.088Z,15.30
2018-07-03T04:21:05.387Z,15.30
2018-07-03T04:23:36.277Z,15.30
2018-07-03T04:26:06.180Z,15.30
2018-07-03T04:28:35.751Z,15.40
2018-07-03T04:31:05.581Z,15.40
2018-07-03T04:33:35.950Z,15.40
2018-07-03T04:36:05.808Z,15.40
2018-07-03T04:38:36.224Z,15.50
2018-07-03T04:41:06.285Z,15.50
2018-07-03T04:43:35.919Z,15.50
2018-07-03T04:46:07.398Z,15.50
2018-07-03T04:48:37.452Z,15.50
2018-07-03T04:51:07.875Z,15.50
2018-07-03T04:53:38.368Z,15.60
2018-07-03T04:56:09.091Z,15.60
2018-07-03T04:58:39.629Z,15.70
2018-07-03T05:01:10.892Z,15.80
2018-07-03T05:03:43.926Z,16.00
2018-07-03T05:06:14.658Z,16.20
2018-07-03T05:08:44.685Z,16.40
2018-07-03T05:11:14.864Z,16.70
2018-07-03T05:13:44.692Z,16.90
2018-07-03T05:16:14.679Z,17.10
2018-07-03T05:18:45.016Z,17.20
2018-07-03T05:21:14.979Z,17.30
2018-07-03T05:23:45.527Z,17.40
2018-07-03T05:26:15.478Z,17.60
2018-07-03T05:28:45.709Z,17.70
2018-07-03T05:31:15.614Z,17.90
2018-07-03T05:33:45.465Z,17.90
2018-07-03T05:36:15.764Z,17.90
2018-07-03T05:38:45.910Z,18.00
2018-07-03T05:41:16.328Z,18.20
2018-07-03T05:43:46.255Z,18.50
2018-07-03T05:46:16.200Z,18.80
2018-07-03T05:48:47.446Z,19.00
2018-07-03T05:51:17.554Z,19.10
2018-07-03T05:53:47.149Z,19.10
2018-07-03T05:56:17.561Z,19.40
2018-07-03T05:58:48.002Z,19.70
2018-07-03T06:01:18.611Z,19.70
2018-07-03T06:03:48.355Z,19.80
2018-07-03T06:06:18.637Z,19.90
2018-07-03T06:08:48.931Z,20.10
2018-07-03T06:11:19.875Z,20.60
2018-07-03T06:13:49.926Z,20.50
2018-07-03T06:16:19.761Z,21.40
2018-07-03T06:18:49.730Z,21.80
2018-07-03T06:21:19.892Z,22.20
2018-07-03T06:23:49.600Z,22.50
2018-07-03T06:26:19.659Z,22.80
2018-07-03T06:28:50.356Z,22.50
2018-07-03T06:31:20.665Z,22.80
2018-07-03T06:33:50.893Z,22.90
2018-07-03T06:36:20.986Z,22.70
2018-07-03T06:38:50.775Z,23.10
2018-07-03T06:41:21.397Z,22.80
2018-07-03T06:43:51.378Z,23.00
2018-07-03T06:46:21.892Z,23.20
2018-07-03T06:48:51.918Z,23.60
2018-07-03T06:51:22.168Z,23.70
2018-07-03T06:53:51.992Z,24.30
2018-07-03T06:56:22.206Z,24.50
2018-07-03T06:58:52.282Z,24.70
2018-07-03T07:01:22.128Z,25.00
2018-07-03T07:03:52.102Z,24.90
2018-07-03T07:06:22.197Z,25.20
2018-07-03T07:08:52.157Z,24.70
2018-07-03T07:11:23.724Z,25.00
2018-07-03T07:13:53.890Z,25.30
2018-07-03T07:16:24.181Z,25.20
2018-07-03T07:18:54.454Z,24.90
2018-07-03T07:21:24.572Z,25.40
2018-07-03T07:23:54.360Z,25.40
2018-07-03T07:26:24.548Z,25.50
2018-07-03T07:28:55.746Z,25.30
2018-07-03T07:31:25.690Z,24.60
2018-07-03T07:33:55.691Z,25.50
2018-07-03T07:36:25.727Z,25.90
2018-07-03T07:38:55.896Z,25.50
2018-07-03T07:41:25.574Z,26.30
2018-07-03T07:43:55.541Z,26.50
2018-07-03T07:48:55.355Z,26.30
2018-07-03T07:51:25.169Z,27.00
2018-07-03T07:53:55.021Z,26.80
2018-07-03T07:56:25.300Z,26.60
2018-07-03T07:58:55.125Z,26.40
2018-07-03T08:01:25.140Z,27.00
2018-07-03T08:03:55.255Z,26.80
2018-07-03T08:06:25.250Z,26.90
2018-07-03T08:08:55.136Z,27.00
2018-07-03T08:11:26.253Z,27.10
2018-07-03T08:13:55.883Z,27.00
2018-07-03T08:16:25.821Z,27.10
2018-07-03T08:18:55.280Z,26.70
2018-07-03T08:21:24.998Z,27.10
2018-07-03T08:23:54.902Z,27.50
2018-07-03T08:26:24.840Z,26.70
2018-07-03T08:28:54.478Z,27.00
2018-07-03T08:31:24.552Z,26.90
2018-07-03T08:33:54.633Z,26.90
2018-07-03T08:36:25.312Z,27.20
2018-07-03T08:38:55.383Z,26.50
2018-07-03T08:41:25.622Z,26.70
2018-07-03T08:43:55.184Z,26.90
2018-07-03T08:46:25.014Z,27.00
2018-07-03T08:48:55.261Z,27.00
2018-07-03T08:51:24.879Z,27.30
2018-07-03T08:53:54.681Z,27.40
2018-07-03T08:56:24.420Z,27.90
2018-07-03T08:58:54.613Z,27.50
2018-07-03T09:01:24.432Z,27.60
2018-07-03T09:03:54.287Z,27.90
2018-07-03T09:06:24.506Z,28.00
2018-07-03T09:08:54.433Z,28.00
2018-07-03T09:11:24.590Z,27.70
2018-07-03T09:13:54.415Z,28.00
2018-07-03T09:16:24.404Z,27.70
2018-07-03T09:18:54.132Z,27.50
2018-07-03T09:21:24.447Z,27.60
2018-07-03T09:23:54.363Z,27.50
2018-07-03T09:26:24.590Z,27.70
2018-07-03T09:28:54.605Z,27.60
2018-07-03T09:31:24.712Z,27.70
2018-07-03T09:33:54.546Z,28.30
2018-07-03T09:36:24.443Z,28.40
2018-07-03T09:38:54.515Z,28.50
2018-07-03T09:41:24.463Z,28.20
2018-07-03T09:43:54.280Z,28.00
2018-07-03T09:46:24.426Z,28.00
2018-07-03T09:48:54.159Z,28.70
2018-07-03T09:51:24.052Z,28.50
2018-07-03T09:53:54.243Z,28.80
2018-07-03T09:56:24.665Z,28.90
2018-07-03T09:58:54.845Z,29.20
2018-07-03T10:01:24.401Z,29.40
2018-07-03T10:03:54.585Z,29.40
2018-07-03T10:06:24.531Z,29.60
2018-07-03T10:08:54.455Z,29.90
2018-07-03T10:11:24.441Z,30.00
2018-07-03T10:13:55.564Z,30.00
2018-07-03T10:16:25.325Z,29.50
2018-07-03T10:18:54.947Z,29.80
2018-07-03T10:21:24.647Z,29.80
2018-07-03T10:23:54.591Z,29.70
2018-07-03T10:26:24.860Z,29.90
2018-07-03T10:28:54.628Z,30.00
2018-07-03T10:31:24.719Z,29.40
2018-07-03T10:33:54.731Z,29.50
2018-07-03T10:36:24.703Z,29.70
2018-07-03T10:38:54.587Z,29.80
2018-07-03T10:41:24.767Z,29.90
2018-07-03T10:43:54.867Z,30.20
2018-07-03T10:46:25.281Z,30.20
2018-07-03T10:48:54.903Z,30.00
2018-07-03T10:51:24.825Z,30.00
2018-07-03T10:53:55.092Z,30.10
2018-07-03T10:56:24.918Z,29.60
2018-07-03T10:58:54.706Z,29.70
2018-07-03T11:01:24.651Z,29.70
2018-07-03T11:03:54.777Z,30.00
2018-07-03T11:06:24.987Z,29.30
2018-07-03T11:08:55.187Z,28.80
2018-07-03T11:11:25.102Z,28.80
2018-07-03T11:13:55.096Z,28.60
2018-07-03T11:16:25.149Z,28.30
2018-07-03T11:18:55.131Z,28.40
2018-07-03T11:21:25.763Z,28.40
2018-07-03T11:23:56.138Z,28.50
2018-07-03T11:26:25.929Z,28.40
2018-07-03T11:28:55.717Z,28.50
2018-07-03T11:31:25.783Z,28.70
2018-07-03T11:33:55.703Z,28.80
2018-07-03T11:36:25.340Z,28.70
2018-07-03T11:38:54.864Z,29.00
2018-07-03T11:41:25.171Z,28.60
2018-07-03T11:43:55.164Z,28.30
2018-07-03T11:46:25.346Z,28.30
2018-07-03T11:48:55.266Z,28.40
2018-07-03T11:51:25.203Z,28.60
2018-07-03T11:53:55.001Z,28.50
2018-07-03T11:56:24.833Z,28.60
2018-07-03T11:58:54.725Z,28.60
2018-07-03T12:01:24.633Z,28.70
2018-07-03T12:03:55.076Z,28.70
2018-07-03T12:06:25.701Z,28.60
2018-07-03T12:08:55.199Z,28.80
2018-07-03T12:11:24.669Z,28.70
2018-07-03T12:13:54.833Z,28.30
2018-07-03T12:16:26.191Z,28.50
2018-07-03T12:19:00.281Z,28.60
2018-07-03T12:21:30.497Z,28.50
2018-07-03T12:24:00.508Z,28.70
2018-07-03T12:26:30.415Z,28.40
2018-07-03T12:28:59.971Z,27.60
2018-07-03T12:31:30.187Z,28.20
2018-07-03T12:33:59.796Z,28.70
2018-07-03T12:36:29.555Z,28.90
2018-07-03T12:38:59.533Z,29.20
2018-07-03T12:41:29.392Z,28.40
2018-07-03T12:43:59.241Z,28.90
2018-07-03T12:46:29.438Z,28.90
2018-07-03T12:48:59.737Z,28.70
2018-07-03T12:51:29.679Z,28.90
2018-07-03T12:54:00.110Z,28.60
2018-07-03T12:56:29.636Z,29.00
2018-07-03T12:58:59.583Z,29.20
2018-07-03T13:01:29.533Z,29.30
2018-07-03T13:03:59.637Z,29.60
2018-07-03T13:06:29.569Z,29.70
2018-07-03T13:08:59.570Z,29.90
2018-07-03T13:11:29.551Z,29.90
2018-07-03T13:13:59.567Z,30.00
2018-07-03T13:16:29.742Z,30.00
2018-07-03T13:18:59.554Z,29.90
2018-07-03T13:21:29.399Z,30.10
2018-07-03T13:23:59.635Z,29.50
2018-07-03T13:26:29.793Z,29.40
2018-07-03T13:29:00.432Z,29.60
2018-07-03T13:31:30.362Z,29.60
2018-07-03T13:34:00.228Z,30.00
2018-07-03T13:36:30.225Z,30.10
2018-07-03T13:39:00.391Z,30.00
2018-07-03T13:41:29.934Z,30.20
2018-07-03T13:43:59.964Z,30.30
2018-07-03T13:46:29.889Z,30.40
2018-07-03T13:48:59.866Z,30.40
2018-07-03T13:51:30.101Z,30.40
2018-07-03T13:54:00.191Z,30.40
2018-07-03T13:56:30.149Z,30.30
2018-07-03T13:59:00.290Z,30.40
2018-07-03T14:01:30.229Z,30.50
2018-07-03T14:03:59.839Z,30.60
2018-07-03T14:06:29.866Z,30.60
2018-07-03T14:08:59.997Z,30.30
2018-07-03T14:11:30.496Z,30.50
2018-07-03T14:14:00.393Z,30.70
2018-07-03T14:16:30.705Z,30.50
2018-07-03T14:19:00.915Z,30.30
2018-07-03T14:21:30.647Z,30.40
2018-07-03T14:24:00.770Z,30.50
2018-07-03T14:26:30.876Z,30.60
2018-07-03T14:29:00.382Z,30.60
2018-07-03T14:31:30.280Z,30.60
2018-07-03T14:33:59.668Z,30.60
2018-07-03T14:36:29.423Z,30.70
2018-07-03T14:38:59.326Z,30.50
2018-07-03T14:41:29.395Z,30.70
2018-07-03T14:43:59.556Z,30.80
2018-07-03T14:46:29.467Z,30.70
2018-07-03T14:48:59.622Z,30.90
2018-07-03T14:51:29.598Z,30.80
2018-07-03T14:53:59.850Z,30.80
2018-07-03T14:56:29.868Z,30.50
2018-07-03T14:58:59.760Z,30.70
2018-07-03T15:01:29.817Z,30.50
2018-07-03T15:03:59.763Z,30.70
2018-07-03T15:06:29.742Z,30.90
2018-07-03T15:08:59.607Z,30.70
2018-07-03T15:11:29.668Z,30.60
2018-07-03T15:13:59.664Z,30.70
2018-07-03T15:16:29.830Z,30.90
2018-07-03T15:20:03.019Z,30.80
2018-07-03T15:22:32.525Z,31.00
2018-07-03T15:25:02.270Z,30.90
2018-07-03T15:27:32.096Z,31.10
2018-07-03T15:30:01.944Z,31.20
2018-07-03T15:32:32.079Z,31.10
2018-07-03T15:35:02.101Z,31.00
2018-07-03T15:37:32.392Z,31.10
2018-07-03T15:40:02.297Z,31.30
2018-07-03T15:42:32.161Z,31.20
2018-07-03T15:45:09.619Z,31.10
2018-07-03T15:47:39.589Z,31.20
2018-07-03T15:50:10.442Z,31.20
2018-07-03T15:52:40.161Z,31.00
2018-07-03T15:55:11.253Z,31.10
2018-07-03T15:57:41.090Z,31.30
2018-07-03T16:00:13.810Z,31.40
2018-07-03T16:05:58.222Z,31.20
2018-07-03T16:08:38.595Z,31.00
2018-07-03T16:11:08.836Z,30.90
2018-07-03T16:13:39.098Z,30.60
2018-07-03T16:16:09.223Z,30.90
2018-07-03T16:18:39.091Z,30.60
2018-07-03T16:21:09.540Z,30.80
2018-07-03T16:23:39.778Z,30.90
2018-07-03T16:26:09.808Z,30.80
2018-07-03T16:28:40.387Z,31.00
2018-07-03T16:31:10.591Z,30.90
2018-07-03T16:33:40.147Z,31.00
2018-07-03T16:36:10.081Z,30.90
2018-07-03T16:38:39.944Z,30.90
2018-07-03T16:41:10.048Z,30.90
2018-07-03T16:43:40.532Z,30.80
2018-07-03T16:46:11.215Z,30.80
2018-07-03T16:48:41.692Z,30.90
2018-07-03T16:51:12.724Z,30.90
2018-07-03T16:53:43.856Z,30.90
2018-07-03T16:56:13.937Z,30.90
2018-07-03T16:58:44.436Z,30.80
2018-07-03T17:01:14.851Z,30.90
2018-07-03T17:03:44.767Z,30.90
2018-07-03T17:06:14.918Z,30.90
2018-07-03T17:08:45.111Z,30.90
2018-07-03T17:11:14.991Z,30.90
2018-07-03T17:13:45.063Z,30.90
2018-07-03T17:16:15.290Z,30.90
2018-07-03T17:18:49.870Z,30.70
2018-07-03T17:21:19.839Z,30.70
2018-07-03T17:23:49.983Z,30.50
2018-07-03T17:26:20.162Z,30.50
2018-07-03T17:28:50.524Z,30.40
2018-07-03T17:31:20.930Z,30.40
2018-07-03T17:33:50.980Z,30.30
2018-07-03T17:36:21.302Z,30.30
2018-07-03T17:38:53.803Z,30.20
2018-07-03T17:41:35.048Z,30.30
2018-07-03T17:44:17.784Z,30.20
2018-07-03T17:46:49.004Z,30.00
2018-07-03T17:49:19.148Z,29.90
2018-07-03T17:51:49.378Z,29.80
2018-07-03T17:54:19.784Z,29.70
2018-07-03T17:56:50.278Z,29.60
2018-07-03T17:59:20.374Z,29.60
2018-07-03T18:01:53.392Z,29.50
2018-07-03T18:04:23.878Z,29.40
2018-07-03T18:06:54.076Z,29.30
2018-07-03T18:09:25.556Z,29.20
2018-07-03T18:11:55.814Z,29.20
2018-07-03T18:14:26.033Z,29.20
2018-07-03T18:16:56.080Z,29.30
2018-07-03T18:19:31.180Z,29.30
2018-07-03T18:22:01.839Z,29.30
2018-07-03T18:24:32.762Z,29.30
2018-07-03T18:27:04.084Z,29.30
2018-07-03T18:29:34.540Z,29.30
2018-07-03T18:32:04.823Z,29.30
2018-07-03T18:34:35.138Z,29.30
2018-07-03T18:37:05.306Z,29.20
2018-07-03T18:39:35.338Z,29.20
2018-07-03T18:42:05.378Z,29.10
2018-07-03T18:44:35.078Z,29.00
2018-07-03T18:47:06.438Z,29.00
2018-07-03T18:49:36.526Z,29.00
2018-07-03T18:52:07.660Z,29.00
2018-07-03T18:54:38.836Z,28.90
2018-07-03T18:57:10.159Z,28.80
2018-07-03T18:59:40.351Z,28.50
2018-07-03T19:02:11.378Z,28.40
2018-07-03T19:04:41.177Z,28.30
2018-07-03T19:07:11.154Z,28.20
2018-07-03T19:09:41.523Z,28.20
2018-07-03T19:12:11.583Z,28.20
2018-07-03T19:14:42.512Z,28.20
2018-07-03T19:17:12.675Z,28.10
2018-07-03T19:19:43.007Z,28.00
2018-07-03T19:22:13.709Z,27.80
2018-07-03T19:24:44.131Z,27.70
2018-07-03T19:27:20.310Z,27.60
2018-07-03T19:29:51.074Z,27.60
2018-07-03T19:32:21.240Z,27.50
2018-07-03T19:34:51.790Z,27.40
2018-07-03T19:37:21.876Z,27.50
2018-07-03T19:39:52.756Z,27.50
2018-07-03T19:42:22.476Z,27.40
2018-07-03T19:44:52.084Z,27.40
2018-07-03T19:47:22.251Z,27.20
2018-07-03T19:49:51.664Z,26.90
2018-07-03T19:52:21.133Z,26.70
2018-07-03T19:54:50.479Z,26.50
2018-07-03T19:57:19.955Z,26.30
2018-07-03T19:59:49.288Z,26.30
2018-07-03T20:02:18.525Z,26.10
2018-07-03T20:04:48.041Z,25.90
2018-07-03T20:07:17.311Z,25.80
2018-07-03T20:09:46.703Z,25.60
2018-07-03T20:12:15.833Z,25.60
2018-07-03T20:14:44.844Z,25.60
2018-07-03T20:17:13.906Z,25.60
2018-07-03T20:19:43.023Z,25.50
2018-07-03T20:22:12.124Z,25.40
2018-07-03T20:24:41.169Z,25.20
2018-07-03T20:27:10.376Z,25.00
2018-07-03T20:29:39.471Z,24.90
2018-07-03T20:32:08.659Z,24.90
2018-07-03T20:34:37.852Z,24.90
2018-07-03T20:37:07.042Z,24.80
2018-07-03T20:39:36.176Z,24.80
2018-07-03T20:42:05.897Z,24.70
2018-07-03T20:44:35.155Z,24.80
2018-07-03T20:47:04.602Z,24.70
2018-07-03T20:49:34.031Z,24.70
2018-07-03T20:52:03.457Z,24.70
2018-07-03T20:54:32.625Z,24.60
2018-07-03T20:57:02.061Z,24.60
2018-07-03T20:59:31.272Z,24.60
2018-07-03T21:02:00.597Z,24.50
2018-07-03T21:04:29.835Z,24.40
2018-07-03T21:06:59.143Z,24.40
2018-07-03T21:09:28.273Z,24.30
2018-07-03T21:11:57.365Z,24.30
2018-07-03T21:14:26.764Z,24.30
2018-07-03T21:16:55.917Z,24.20
2018-07-03T21:19:25.127Z,24.20
2018-07-03T21:21:54.834Z,24.20
2018-07-03T21:24:24.056Z,24.10
2018-07-03T21:26:53.449Z,24.00
2018-07-03T21:29:22.681Z,24.10
2018-07-03T21:31:51.896Z,23.90
2018-07-03T21:34:20.976Z,23.90
2018-07-03T21:36:50.201Z,23.80
2018-07-03T21:39:19.377Z,23.80
2018-07-03T21:41:48.668Z,23.80
2018-07-03T21:44:18.640Z,23.80
2018-07-03T21:46:47.825Z,23.80
2018-07-03T21:49:17.472Z,23.70
2018-07-03T21:51:46.843Z,23.70
2018-07-03T21:54:16.682Z,23.70
2018-07-03T21:56:45.895Z,23.60
2018-07-03T21:59:15.979Z,23.60
2018-07-03T22:01:45.219Z,23.50
2018-07-03T22:04:14.572Z,23.40
2018-07-03T22:06:43.949Z,23.30
2018-07-03T22:09:14.040Z,23.20
2018-07-03T22:11:43.461Z,23.20
2018-07-03T22:14:12.718Z,23.10
2018-07-03T22:16:41.832Z,23.00
2018-07-03T22:19:11.173Z,22.80
2018-07-03T22:21:40.296Z,22.80
2018-07-03T22:24:09.467Z,22.60
2018-07-03T22:26:38.715Z,22.60
2018-07-03T22:29:07.826Z,22.60
2018-07-03T22:31:36.924Z,22.50
2018-07-03T22:34:06.161Z,22.50
2018-07-03T22:36:35.535Z,22.60
2018-07-03T22:39:06.934Z,22.60
2018-07-03T22:41:36.434Z,22.60
2018-07-03T22:44:05.665Z,22.50
2018-07-03T22:46:34.887Z,22.50
2018-07-03T22:49:04.242Z,22.30
2018-07-03T22:51:33.559Z,22.10
2018-07-03T22:54:02.874Z,21.90
2018-07-03T22:56:32.367Z,21.90
2018-07-03T22:59:01.920Z,21.90
2018-07-03T23:01:31.313Z,22.00
2018-07-03T23:04:00.513Z,22.00
2018-07-03T23:06:29.725Z,22.00
2018-07-03T23:08:58.941Z,22.00
2018-07-03T23:11:28.259Z,21.90
2018-07-03T23:13:57.461Z,21.80
2018-07-03T23:16:26.839Z,21.70
2018-07-03T23:18:56.031Z,21.70
2018-07-03T23:21:25.219Z,21.70
2018-07-03T23:23:54.425Z,21.60
2018-07-03T23:26:23.821Z,21.60
2018-07-03T23:28:53.415Z,21.60
2018-07-03T23:31:22.741Z,21.50
2018-07-03T23:33:51.925Z,21.60
2018-07-03T23:36:21.181Z,21.60
2018-07-03T23:38:50.417Z,21.50
2018-07-03T23:41:19.626Z,21.40
2018-07-03T23:43:48.889Z,21.40
2018-07-03T23:46:29.315Z,21.30
2018-07-03T23:49:09.605Z,21.30
2018-07-03T23:51:49.859Z,21.30
2018-07-03T23:54:30.131Z,21.30
2018-07-03T23:57:10.319Z,21.10
2018-07-03T23:59:50.563Z,21.10
